createdAt,value
2018-03-22T00:01:02.646Z,61.23
2018-03-22T00:02:09.127Z,61.29
2018-03-22T00:03:14.825Z,61.46
2018-03-22T00:04:21.311Z,61.41
2018-03-22T00:05:27.005Z,61.32
2018-03-22T00:06:32.721Z,61.47
2018-03-22T00:07:38.451Z,61.41
2018-03-22T00:08:44.156Z,61.45
2018-03-22T00:09:50.953Z,61.57
2018-03-22T00:10:56.652Z,61.70
2018-03-22T00:12:03.126Z,61.67
2018-03-22T00:13:09.694Z,61.75
2018-03-22T00:14:16.154Z,61.96
2018-03-22T00:15:21.853Z,61.73
2018-03-22T00:16:27.554Z,61.78
2018-03-22T00:17:33.252Z,61.87
2018-03-22T00:18:39.756Z,61.87
2018-03-22T00:19:45.458Z,61.91
2018-03-22T00:20:51.916Z,62.03
2018-03-22T00:21:58.393Z,62.38
2018-03-22T00:23:04.089Z,62.57
2018-03-22T00:24:09.825Z,62.69
2018-03-22T00:25:15.530Z,62.73
2018-03-22T00:26:21.553Z,62.65
2018-03-22T00:27:28.017Z,62.65
2018-03-22T00:28:33.714Z,62.57
2018-03-22T00:29:39.426Z,62.63
2018-03-22T00:30:45.141Z,62.66
2018-03-22T00:31:50.875Z,62.75
2018-03-22T00:32:56.587Z,62.62
2018-03-22T00:34:03.066Z,62.43
2018-03-22T00:35:09.545Z,62.48
2018-03-22T00:36:15.255Z,62.49
2018-03-22T00:37:21.720Z,62.42
2018-03-22T00:38:28.194Z,62.43
2018-03-22T00:39:33.890Z,62.40
2018-03-22T00:40:39.618Z,62.19
2018-03-22T00:41:45.327Z,62.23
2018-03-22T00:42:51.027Z,62.22
2018-03-22T00:43:56.716Z,62.17
2018-03-22T00:45:02.531Z,62.16
2018-03-22T00:46:08.357Z,62.30
2018-03-22T00:47:14.841Z,62.29
2018-03-22T00:48:20.540Z,62.30
2018-03-22T00:49:26.808Z,62.23
2018-03-22T00:50:33.303Z,62.17
2018-03-22T00:51:39.020Z,62.12
2018-03-22T00:52:45.293Z,62.15
2018-03-22T00:53:50.988Z,62.18
2018-03-22T00:54:56.688Z,62.21
2018-03-22T00:56:02.208Z,62.30
2018-03-22T00:57:07.915Z,62.21
2018-03-22T00:58:13.608Z,62.25
2018-03-22T00:59:19.376Z,62.33
2018-03-22T01:00:25.069Z,62.30
2018-03-22T01:01:30.776Z,62.33
2018-03-22T01:02:36.500Z,62.25
2018-03-22T01:03:42.212Z,62.30
2018-03-22T01:04:47.947Z,62.34
2018-03-22T01:05:53.665Z,62.33
2018-03-22T01:06:59.054Z,62.41
2018-03-22T01:08:04.774Z,62.54
2018-03-22T01:09:10.497Z,62.43
2018-03-22T01:10:16.192Z,62.46
2018-03-22T01:11:21.907Z,62.41
2018-03-22T01:12:27.596Z,62.36
2018-03-22T01:13:34.089Z,62.38
2018-03-22T01:14:40.106Z,62.39
2018-03-22T01:15:45.799Z,62.53
2018-03-22T01:16:51.508Z,62.49
2018-03-22T01:17:57.199Z,62.60
2018-03-22T01:19:03.681Z,62.61
2018-03-22T01:20:10.163Z,62.54
2018-03-22T01:21:15.868Z,62.55
2018-03-22T01:22:22.342Z,62.62
2018-03-22T01:23:28.487Z,62.69
2018-03-22T01:24:34.333Z,62.59
2018-03-22T01:25:40.034Z,62.60
2018-03-22T01:26:45.738Z,62.61
2018-03-22T01:27:51.448Z,62.66
2018-03-22T01:28:57.161Z,62.67
2018-03-22T01:30:02.881Z,62.64
2018-03-22T01:31:08.570Z,62.54
2018-03-22T01:32:15.036Z,62.56
2018-03-22T01:33:20.736Z,62.57
2018-03-22T01:34:26.454Z,62.41
2018-03-22T01:35:32.208Z,62.52
2018-03-22T01:36:37.930Z,62.44
2018-03-22T01:37:43.627Z,62.34
2018-03-22T01:38:50.096Z,62.40
2018-03-22T01:39:55.809Z,62.31
2018-03-22T01:41:01.518Z,62.56
2018-03-22T01:42:07.405Z,62.42
2018-03-22T01:43:13.116Z,62.45
2018-03-22T01:44:18.840Z,62.38
2018-03-22T01:45:24.542Z,62.56
2018-03-22T01:46:31.024Z,62.53
2018-03-22T01:47:36.713Z,62.45
2018-03-22T01:48:43.175Z,62.46
2018-03-22T01:49:49.660Z,62.60
2018-03-22T01:50:55.027Z,62.62
2018-03-22T01:52:00.744Z,62.71
2018-03-22T01:53:15.270Z,62.64
2018-03-22T01:54:21.740Z,62.74
2018-03-22T01:55:27.446Z,62.65
2018-03-22T01:56:33.148Z,62.72
2018-03-22T01:57:38.868Z,62.75
2018-03-22T01:58:44.573Z,62.71
2018-03-22T01:59:51.558Z,62.57
2018-03-22T02:00:58.038Z,62.57
2018-03-22T02:02:03.754Z,62.47
2018-03-22T02:03:10.447Z,62.52
2018-03-22T02:04:16.166Z,62.43
2018-03-22T02:05:22.628Z,62.45
2018-03-22T02:06:28.342Z,62.40
2018-03-22T02:07:34.858Z,62.37
2018-03-22T02:08:40.853Z,62.32
2018-03-22T02:09:47.361Z,62.30
2018-03-22T02:10:53.093Z,62.38
2018-03-22T02:11:58.788Z,62.30
2018-03-22T02:13:05.577Z,62.37
2018-03-22T02:14:12.060Z,62.38
2018-03-22T02:15:17.573Z,62.36
2018-03-22T02:16:23.272Z,62.40
2018-03-22T02:17:28.790Z,62.36
2018-03-22T02:18:34.494Z,62.26
2018-03-22T02:19:39.893Z,62.23
2018-03-22T02:20:45.057Z,62.18
2018-03-22T02:21:50.757Z,62.22
2018-03-22T02:22:56.465Z,62.20
2018-03-22T02:24:02.186Z,62.24
2018-03-22T02:25:07.921Z,62.25
2018-03-22T02:26:13.641Z,62.32
2018-03-22T02:27:20.098Z,62.33
2018-03-22T02:28:26.565Z,62.32
2018-03-22T02:29:32.260Z,62.35
2018-03-22T02:30:37.998Z,62.23
2018-03-22T02:31:43.702Z,62.22
2018-03-22T02:32:49.193Z,62.10
2018-03-22T02:33:55.110Z,62.15
2018-03-22T02:35:00.818Z,62.14
2018-03-22T02:36:06.555Z,62.17
2018-03-22T02:37:12.286Z,62.15
2018-03-22T02:38:19.416Z,62.06
2018-03-22T02:39:25.108Z,62.02
2018-03-22T02:40:30.811Z,62.00
2018-03-22T02:41:36.523Z,62.09
2018-03-22T02:42:42.217Z,61.96
2018-03-22T02:43:48.682Z,61.93
2018-03-22T02:44:54.394Z,61.98
2018-03-22T02:46:00.101Z,61.97
2018-03-22T02:47:05.829Z,61.96
2018-03-22T02:48:11.534Z,62.06
2018-03-22T02:49:18.002Z,62.02
2018-03-22T02:50:23.914Z,61.93
2018-03-22T02:51:29.628Z,61.93
2018-03-22T02:52:35.354Z,61.92
2018-03-22T02:53:41.070Z,61.90
2018-03-22T02:54:46.767Z,61.91
2018-03-22T02:55:52.468Z,61.94
2018-03-22T02:56:57.882Z,62.01
2018-03-22T02:58:04.590Z,62.02
2018-03-22T02:59:10.498Z,62.04
2018-03-22T03:00:16.197Z,62.07
2018-03-22T03:01:21.886Z,62.12
2018-03-22T03:02:27.601Z,62.26
2018-03-22T03:03:34.095Z,62.29
2018-03-22T03:04:39.813Z,62.29
2018-03-22T03:05:45.532Z,62.38
2018-03-22T03:06:52.261Z,62.50
2018-03-22T03:07:57.952Z,62.38
2018-03-22T03:09:03.468Z,62.30
2018-03-22T03:10:09.942Z,62.42
2018-03-22T03:11:16.415Z,62.50
2018-03-22T03:12:22.134Z,62.63
2018-03-22T03:13:28.592Z,62.69
2018-03-22T03:14:35.089Z,62.68
2018-03-22T03:15:40.781Z,62.86
2018-03-22T03:16:47.245Z,62.82
2018-03-22T03:17:53.712Z,62.97
2018-03-22T03:19:00.174Z,63.10
2018-03-22T03:20:06.658Z,63.11
2018-03-22T03:21:12.367Z,63.12
2018-03-22T03:22:18.861Z,63.26
2018-03-22T03:23:24.576Z,63.33
2018-03-22T03:24:30.282Z,63.38
2018-03-22T03:25:36.004Z,63.31
2018-03-22T03:26:41.705Z,63.32
2018-03-22T03:27:47.425Z,63.26
2018-03-22T03:28:53.911Z,63.23
2018-03-22T03:29:59.617Z,63.18
2018-03-22T03:31:06.156Z,63.06
2018-03-22T03:32:12.016Z,63.06
2018-03-22T03:33:18.485Z,62.94
2018-03-22T03:34:24.960Z,62.86
2018-03-22T03:35:31.003Z,62.70
2018-03-22T03:36:37.485Z,62.52
2018-03-22T03:37:43.525Z,62.46
2018-03-22T03:38:49.249Z,62.31
2018-03-22T03:39:54.981Z,62.29
2018-03-22T03:41:01.459Z,62.12
2018-03-22T03:42:07.193Z,61.95
2018-03-22T03:43:12.894Z,61.81
2018-03-22T03:44:18.819Z,61.66
2018-03-22T03:45:24.196Z,61.47
2018-03-22T03:46:30.666Z,61.32
2018-03-22T03:47:36.409Z,61.30
2018-03-22T03:48:42.111Z,61.18
2018-03-22T03:49:48.590Z,60.99
2018-03-22T03:50:55.069Z,60.90
2018-03-22T03:52:00.837Z,60.82
2018-03-22T03:53:06.740Z,60.88
2018-03-22T03:54:13.231Z,61.02
2018-03-22T03:55:19.256Z,61.12
2018-03-22T03:56:24.967Z,61.20
2018-03-22T03:57:31.450Z,61.15
2018-03-22T03:58:37.961Z,61.06
2018-03-22T03:59:43.673Z,61.10
2018-03-22T04:00:49.385Z,61.13
2018-03-22T04:01:55.109Z,61.08
2018-03-22T04:03:01.603Z,61.13
2018-03-22T04:04:07.156Z,61.21
2018-03-22T04:05:12.869Z,61.25
2018-03-22T04:06:18.603Z,61.25
2018-03-22T04:07:25.256Z,61.34
2018-03-22T04:08:31.771Z,61.23
2018-03-22T04:09:37.512Z,61.28
2018-03-22T04:10:43.517Z,61.31
2018-03-22T04:11:49.226Z,61.35
2018-03-22T04:12:54.929Z,61.31
2018-03-22T04:14:00.642Z,61.52
2018-03-22T04:15:06.377Z,61.60
2018-03-22T04:16:12.857Z,61.60
2018-03-22T04:17:18.628Z,61.52
2018-03-22T04:18:24.342Z,61.54
2018-03-22T04:19:30.070Z,61.76
2018-03-22T04:20:35.807Z,61.74
2018-03-22T04:21:41.525Z,61.55
2018-03-22T04:22:48.009Z,61.63
2018-03-22T04:23:53.728Z,61.55
2018-03-22T04:25:00.197Z,61.57
2018-03-22T04:26:05.944Z,61.55
2018-03-22T04:27:11.656Z,61.44
2018-03-22T04:28:18.160Z,61.44
2018-03-22T04:29:23.860Z,61.35
2018-03-22T04:30:30.348Z,61.28
2018-03-22T04:31:36.107Z,61.26
2018-03-22T04:32:41.838Z,61.32
2018-03-22T04:33:47.553Z,61.36
2018-03-22T04:34:54.028Z,61.35
2018-03-22T04:35:59.758Z,61.35
2018-03-22T04:37:06.460Z,61.31
2018-03-22T04:38:12.177Z,61.29
2018-03-22T04:39:17.876Z,61.49
2018-03-22T04:40:23.593Z,61.46
2018-03-22T04:41:29.306Z,61.45
2018-03-22T04:42:34.805Z,61.38
2018-03-22T04:43:41.284Z,61.38
2018-03-22T04:44:47.001Z,61.33
2018-03-22T04:45:53.484Z,61.36
2018-03-22T04:46:59.202Z,61.33
2018-03-22T04:48:05.373Z,61.34
2018-03-22T04:49:11.085Z,61.32
2018-03-22T04:50:16.850Z,61.40
2018-03-22T04:51:23.325Z,61.35
2018-03-22T04:52:29.040Z,61.25
2018-03-22T04:53:35.549Z,61.09
2018-03-22T04:54:41.665Z,61.15
2018-03-22T04:55:47.370Z,61.12
2018-03-22T04:56:53.852Z,61.20
2018-03-22T04:57:59.585Z,61.19
2018-03-22T04:59:06.102Z,61.30
2018-03-22T05:00:11.846Z,61.33
2018-03-22T05:01:17.585Z,61.39
2018-03-22T05:02:23.324Z,61.22
2018-03-22T05:03:29.053Z,61.18
2018-03-22T05:04:34.781Z,61.20
2018-03-22T05:05:40.494Z,61.19
2018-03-22T05:06:46.210Z,61.26
2018-03-22T05:07:51.916Z,61.22
2018-03-22T05:08:57.455Z,61.21
2018-03-22T05:10:03.482Z,61.15
2018-03-22T05:11:09.196Z,61.07
2018-03-22T05:12:15.683Z,61.15
2018-03-22T05:13:21.405Z,61.15
2018-03-22T05:14:27.120Z,61.16
2018-03-22T05:15:32.692Z,61.03
2018-03-22T05:16:38.439Z,60.91
2018-03-22T05:17:43.957Z,60.92
2018-03-22T05:18:49.671Z,60.90
2018-03-22T05:19:56.912Z,60.79
2018-03-22T05:21:02.667Z,60.80
2018-03-22T05:22:08.380Z,60.95
2018-03-22T05:23:14.110Z,60.95
2018-03-22T05:24:19.818Z,60.98
2018-03-22T05:25:25.545Z,61.00
2018-03-22T05:26:31.318Z,61.03
2018-03-22T05:27:38.015Z,60.98
2018-03-22T05:28:43.752Z,60.95
2018-03-22T05:29:49.782Z,60.87
2018-03-22T05:30:55.485Z,60.87
2018-03-22T05:32:01.672Z,60.96
2018-03-22T05:33:07.376Z,60.96
2018-03-22T05:34:13.109Z,61.01
2018-03-22T05:35:19.108Z,61.00
2018-03-22T05:36:24.819Z,60.98
2018-03-22T05:37:31.407Z,60.93
2018-03-22T05:38:37.106Z,60.82
2018-03-22T05:39:42.699Z,60.82
2018-03-22T05:40:48.731Z,60.62
2018-03-22T05:41:54.448Z,60.64
2018-03-22T05:43:00.967Z,60.63
2018-03-22T05:44:06.689Z,60.69
2018-03-22T05:45:12.412Z,60.68
2018-03-22T05:46:18.158Z,60.75
2018-03-22T05:47:23.870Z,60.61
2018-03-22T05:48:30.364Z,60.57
2018-03-22T05:49:36.080Z,60.50
2018-03-22T05:50:41.796Z,60.45
2018-03-22T05:51:47.496Z,60.28
2018-03-22T05:52:53.249Z,60.16
2018-03-22T05:53:58.989Z,60.14
2018-03-22T05:55:04.703Z,60.11
2018-03-22T05:56:10.465Z,59.96
2018-03-22T05:57:16.173Z,59.91
2018-03-22T05:58:22.652Z,59.76
2018-03-22T05:59:28.413Z,59.60
2018-03-22T06:00:34.123Z,59.48
2018-03-22T06:01:39.817Z,59.34
2018-03-22T06:02:45.526Z,59.30
2018-03-22T06:03:51.292Z,59.29
2018-03-22T06:04:57.548Z,59.24
2018-03-22T06:06:03.269Z,59.17
2018-03-22T06:07:08.981Z,59.16
2018-03-22T06:08:14.772Z,59.13
2018-03-22T06:09:20.484Z,59.18
2018-03-22T06:10:26.324Z,59.23
2018-03-22T06:11:32.034Z,59.14
2018-03-22T06:12:37.736Z,59.01
2018-03-22T06:13:43.453Z,59.04
2018-03-22T06:14:49.193Z,59.07
2018-03-22T06:15:54.920Z,59.12
2018-03-22T06:17:00.636Z,59.09
2018-03-22T06:18:07.108Z,59.07
2018-03-22T06:19:12.827Z,58.96
2018-03-22T06:20:19.319Z,58.82
2018-03-22T06:21:25.059Z,58.68
2018-03-22T06:22:30.759Z,58.64
2018-03-22T06:23:37.243Z,58.46
2018-03-22T06:24:43.715Z,58.35
2018-03-22T06:25:49.425Z,58.37
2018-03-22T06:26:55.927Z,58.22
2018-03-22T06:28:01.645Z,58.08
2018-03-22T06:29:07.357Z,58.00
2018-03-22T06:30:13.052Z,57.86
2018-03-22T06:31:18.766Z,57.82
2018-03-22T06:32:24.528Z,57.79
2018-03-22T06:33:30.228Z,57.67
2018-03-22T06:34:35.947Z,57.72
2018-03-22T06:35:41.936Z,57.64
2018-03-22T06:36:47.644Z,57.64
2018-03-22T06:37:54.149Z,57.60
2018-03-22T06:39:00.098Z,57.58
2018-03-22T06:40:05.205Z,57.65
2018-03-22T06:41:11.099Z,57.57
2018-03-22T06:42:16.801Z,57.52
2018-03-22T06:43:22.538Z,57.43
2018-03-22T06:44:28.248Z,57.41
2018-03-22T06:45:34.725Z,57.51
2018-03-22T06:46:40.454Z,57.36
2018-03-22T06:47:46.916Z,57.32
2018-03-22T06:48:52.649Z,57.18
2018-03-22T06:49:59.132Z,57.08
2018-03-22T06:51:05.607Z,57.16
2018-03-22T06:52:11.316Z,57.25
2018-03-22T06:53:17.017Z,57.16
2018-03-22T06:54:22.745Z,57.00
2018-03-22T06:55:28.464Z,56.86
2018-03-22T06:56:34.487Z,56.78
2018-03-22T06:57:40.190Z,56.81
2018-03-22T06:58:45.701Z,56.83
2018-03-22T06:59:51.428Z,56.71
2018-03-22T07:00:57.147Z,56.61
2018-03-22T07:02:02.861Z,56.59
2018-03-22T07:03:08.565Z,56.71
2018-03-22T07:04:14.265Z,56.70
2018-03-22T07:05:20.028Z,56.54
2018-03-22T07:06:25.741Z,56.60
2018-03-22T07:07:32.215Z,56.69
2018-03-22T07:08:37.956Z,56.74
2018-03-22T07:09:43.650Z,56.61
2018-03-22T07:10:49.389Z,56.61
2018-03-22T07:11:55.097Z,56.69
2018-03-22T07:13:00.810Z,57.05
2018-03-22T07:14:06.532Z,57.10
2018-03-22T07:15:13.318Z,57.26
2018-03-22T07:16:19.061Z,57.57
2018-03-22T07:17:24.801Z,57.77
2018-03-22T07:18:30.320Z,58.12
2018-03-22T07:19:36.802Z,58.45
2018-03-22T07:20:42.517Z,58.59
2018-03-22T07:21:49.021Z,58.78
2018-03-22T07:22:54.724Z,58.83
2018-03-22T07:24:00.108Z,58.87
2018-03-22T07:25:05.157Z,58.80
2018-03-22T07:26:10.862Z,58.77
2018-03-22T07:27:16.597Z,58.73
2018-03-22T07:28:22.298Z,58.59
2018-03-22T07:29:28.766Z,58.59
2018-03-22T07:30:34.479Z,58.57
2018-03-22T07:31:40.191Z,58.48
2018-03-22T07:32:45.921Z,58.63
2018-03-22T07:33:51.624Z,58.76
2018-03-22T07:34:57.342Z,58.79
2018-03-22T07:36:03.045Z,58.76
2018-03-22T07:37:08.758Z,58.74
2018-03-22T07:38:14.496Z,58.77
2018-03-22T07:39:20.203Z,59.01
2018-03-22T07:40:26.689Z,59.15
2018-03-22T07:41:32.396Z,59.33
2018-03-22T07:42:38.105Z,59.25
2018-03-22T07:43:43.843Z,59.32
2018-03-22T07:44:49.583Z,59.48
2018-03-22T07:45:55.480Z,59.56
2018-03-22T07:47:01.950Z,59.43
2018-03-22T07:48:07.684Z,59.73
2018-03-22T07:49:14.169Z,59.79
2018-03-22T07:50:19.888Z,59.94
2018-03-22T07:51:26.361Z,59.90
2018-03-22T07:52:32.073Z,60.00
2018-03-22T07:53:38.556Z,59.96
2018-03-22T07:54:44.329Z,60.37
2018-03-22T07:55:50.037Z,60.76
2018-03-22T07:56:55.753Z,61.48
2018-03-22T07:58:01.329Z,62.18
2018-03-22T07:59:07.029Z,62.71
2018-03-22T08:00:13.344Z,63.49
2018-03-22T08:01:19.057Z,64.23
2018-03-22T08:02:24.788Z,64.50
2018-03-22T08:03:30.501Z,65.13
2018-03-22T08:04:36.998Z,65.13
2018-03-22T08:05:42.778Z,65.88
2018-03-22T08:06:48.652Z,66.61
2018-03-22T08:07:55.148Z,67.26
2018-03-22T08:09:00.672Z,67.60
2018-03-22T08:10:06.391Z,67.96
2018-03-22T08:11:12.884Z,68.19
2018-03-22T08:12:18.634Z,68.71
2018-03-22T08:13:24.004Z,68.74
2018-03-22T08:14:29.716Z,68.41
2018-03-22T08:15:35.441Z,68.80
2018-03-22T08:16:41.274Z,68.72
2018-03-22T08:17:46.990Z,68.89
2018-03-22T08:18:53.469Z,68.70
2018-03-22T08:19:59.184Z,68.42
2018-03-22T08:21:05.670Z,68.32
2018-03-22T08:22:11.405Z,68.55
2018-03-22T08:23:17.116Z,68.69
2018-03-22T08:24:22.817Z,68.89
2018-03-22T08:25:28.591Z,68.89
2018-03-22T08:26:35.072Z,68.98
2018-03-22T08:27:41.586Z,68.98
2018-03-22T08:28:47.390Z,69.18
2018-03-22T08:29:53.128Z,69.03
2018-03-22T08:30:58.845Z,69.05
2018-03-22T08:32:04.989Z,68.87
2018-03-22T08:33:12.274Z,68.56
2018-03-22T08:34:18.957Z,68.33
2018-03-22T08:35:24.664Z,68.17
2018-03-22T08:36:30.376Z,68.09
2018-03-22T08:37:36.121Z,67.94
2018-03-22T08:38:41.852Z,67.70
2018-03-22T08:39:47.570Z,67.39
2018-03-22T08:40:53.284Z,67.33
2018-03-22T08:41:59.769Z,67.02
2018-03-22T08:43:05.485Z,67.19
2018-03-22T08:44:12.049Z,67.12
2018-03-22T08:45:18.529Z,67.01
2018-03-22T08:46:24.241Z,67.06
2018-03-22T08:47:30.732Z,67.24
2018-03-22T08:48:36.457Z,67.20
2018-03-22T08:49:42.188Z,67.15
2018-03-22T08:50:48.661Z,67.15
2018-03-22T08:51:54.376Z,67.26
2018-03-22T08:53:00.862Z,67.27
2018-03-22T08:54:06.604Z,67.18
2018-03-22T08:55:12.453Z,67.03
2018-03-22T08:56:18.160Z,67.36
2018-03-22T08:57:23.878Z,67.36
2018-03-22T08:58:29.594Z,67.46
2018-03-22T08:59:35.317Z,67.45
2018-03-22T09:00:41.053Z,67.56
2018-03-22T09:01:46.780Z,67.50
2018-03-22T09:02:53.252Z,67.56
2018-03-22T09:03:58.985Z,67.59
2018-03-22T09:05:04.699Z,67.38
2018-03-22T09:06:12.018Z,67.26
2018-03-22T09:07:18.508Z,67.38
2018-03-22T09:08:24.229Z,67.44
2018-03-22T09:09:29.961Z,67.41
2018-03-22T09:10:35.661Z,67.16
2018-03-22T09:11:42.160Z,67.18
2018-03-22T09:12:47.885Z,67.11
2018-03-22T09:13:53.589Z,66.94
2018-03-22T09:15:00.080Z,66.94
2018-03-22T09:16:06.552Z,66.83
2018-03-22T09:17:12.340Z,66.67
2018-03-22T09:18:18.163Z,66.51
2018-03-22T09:19:23.886Z,66.46
2018-03-22T09:20:29.605Z,66.32
2018-03-22T09:21:35.318Z,66.10
2018-03-22T09:22:41.096Z,65.79
2018-03-22T09:23:46.814Z,65.72
2018-03-22T09:24:53.297Z,65.56
2018-03-22T09:25:59.025Z,65.52
2018-03-22T09:27:06.928Z,65.51
2018-03-22T09:28:12.669Z,65.45
2018-03-22T09:29:18.384Z,65.53
2018-03-22T09:30:24.862Z,65.74
2018-03-22T09:31:30.582Z,65.64
2018-03-22T09:32:36.282Z,65.44
2018-03-22T09:33:42.030Z,65.39
2018-03-22T09:34:47.738Z,65.21
2018-03-22T09:35:53.446Z,65.10
2018-03-22T09:36:59.929Z,64.92
2018-03-22T09:38:05.645Z,64.61
2018-03-22T09:39:12.156Z,64.45
2018-03-22T09:40:17.861Z,64.44
2018-03-22T09:41:23.582Z,64.39
2018-03-22T09:42:30.070Z,64.40
2018-03-22T09:43:35.782Z,64.46
2018-03-22T09:44:42.276Z,64.32
2018-03-22T09:45:48.005Z,64.13
2018-03-22T09:46:53.715Z,64.08
2018-03-22T09:48:00.195Z,64.00
2018-03-22T09:49:06.667Z,63.88
2018-03-22T09:50:12.404Z,63.77
2018-03-22T09:51:18.113Z,63.60
2018-03-22T09:52:24.597Z,63.38
2018-03-22T09:53:31.068Z,63.38
2018-03-22T09:54:36.788Z,63.30
2018-03-22T09:55:43.279Z,63.24
2018-03-22T09:56:48.813Z,63.11
2018-03-22T09:57:54.520Z,62.96
2018-03-22T09:59:00.990Z,62.97
2018-03-22T10:00:06.369Z,62.85
2018-03-22T10:01:12.136Z,62.76
2018-03-22T10:02:17.845Z,62.69
2018-03-22T10:03:23.553Z,62.59
2018-03-22T10:04:29.273Z,62.57
2018-03-22T10:05:35.748Z,62.70
2018-03-22T10:06:42.310Z,62.93
2018-03-22T10:07:48.793Z,63.21
2018-03-22T10:08:54.503Z,62.98
2018-03-22T10:10:00.213Z,62.82
2018-03-22T10:11:05.950Z,62.79
2018-03-22T10:12:11.678Z,62.76
2018-03-22T10:13:17.393Z,62.69
2018-03-22T10:14:23.101Z,62.56
2018-03-22T10:15:28.805Z,62.54
2018-03-22T10:16:34.516Z,62.53
2018-03-22T10:17:40.273Z,62.43
2018-03-22T10:18:45.974Z,62.26
2018-03-22T10:19:51.686Z,62.23
2018-03-22T10:20:58.166Z,62.02
2018-03-22T10:22:03.874Z,62.03
2018-03-22T10:23:09.601Z,61.96
2018-03-22T10:24:15.318Z,61.90
2018-03-22T10:25:21.347Z,61.83
2018-03-22T10:26:27.058Z,61.94
2018-03-22T10:27:33.552Z,61.70
2018-03-22T10:28:39.296Z,61.86
2018-03-22T10:29:45.066Z,61.81
2018-03-22T10:30:51.682Z,61.76
2018-03-22T10:31:57.388Z,61.75
2018-03-22T10:33:03.114Z,61.79
2018-03-22T10:34:08.844Z,61.81
2018-03-22T10:35:14.551Z,61.77
2018-03-22T10:36:20.258Z,61.83
2018-03-22T10:37:25.959Z,61.77
2018-03-22T10:38:31.668Z,61.64
2018-03-22T10:39:37.431Z,61.73
2018-03-22T10:40:43.133Z,61.59
2018-03-22T10:41:49.604Z,61.42
2018-03-22T10:42:56.084Z,61.38
2018-03-22T10:44:01.804Z,61.33
2018-03-22T10:45:07.537Z,61.35
2018-03-22T10:46:13.286Z,61.36
2018-03-22T10:47:19.000Z,61.21
2018-03-22T10:48:24.709Z,61.08
2018-03-22T10:49:30.417Z,61.00
2018-03-22T10:50:36.158Z,60.92
2018-03-22T10:51:41.872Z,60.68
2018-03-22T10:52:48.345Z,60.64
2018-03-22T10:53:54.095Z,60.46
2018-03-22T10:54:59.806Z,60.43
2018-03-22T10:56:06.302Z,60.39
2018-03-22T10:57:12.012Z,60.38
2018-03-22T10:58:18.857Z,60.56
2018-03-22T10:59:24.561Z,60.90
2018-03-22T11:00:35.804Z,61.11
2018-03-22T11:01:46.948Z,61.44
2018-03-22T11:02:54.224Z,61.65
2018-03-22T11:03:59.739Z,61.62
2018-03-22T11:05:04.789Z,61.71
2018-03-22T11:06:11.262Z,61.84
2018-03-22T11:07:17.568Z,62.07
2018-03-22T11:08:23.325Z,62.23
2018-03-22T11:09:29.024Z,62.36
2018-03-22T11:10:34.726Z,62.37
2018-03-22T11:11:41.189Z,62.80
2018-03-22T11:12:47.699Z,62.71
2018-03-22T11:13:53.459Z,62.68
2018-03-22T11:14:59.327Z,62.99
2018-03-22T11:16:05.812Z,63.12
2018-03-22T11:17:11.513Z,63.15
2018-03-22T11:18:18.223Z,63.40
2018-03-22T11:19:23.940Z,63.65
2018-03-22T11:20:30.412Z,63.59
2018-03-22T11:21:36.129Z,63.59
2018-03-22T11:22:42.603Z,63.65
2018-03-22T11:23:49.101Z,63.64
2018-03-22T11:24:54.809Z,63.67
2018-03-22T11:26:01.061Z,63.47
2018-03-22T11:27:06.761Z,63.29
2018-03-22T11:28:13.239Z,63.36
2018-03-22T11:29:19.733Z,63.41
2018-03-22T11:30:25.460Z,63.46
2018-03-22T11:31:31.198Z,63.64
2018-03-22T11:32:36.913Z,63.82
2018-03-22T11:33:42.616Z,64.07
2018-03-22T11:34:48.354Z,63.90
2018-03-22T11:35:54.070Z,63.71
2018-03-22T11:36:59.775Z,63.82
2018-03-22T11:38:05.544Z,63.82
2018-03-22T11:39:11.250Z,63.85
2018-03-22T11:40:16.827Z,64.24
2018-03-22T11:41:22.536Z,64.48
2018-03-22T11:42:29.221Z,64.31
2018-03-22T11:43:34.940Z,64.23
2018-03-22T11:44:40.637Z,64.21
2018-03-22T11:45:46.369Z,64.01
2018-03-22T11:46:52.384Z,63.99
2018-03-22T11:47:58.138Z,64.03
2018-03-22T11:49:03.890Z,63.93
2018-03-22T11:50:09.600Z,63.93
2018-03-22T11:51:16.099Z,63.97
2018-03-22T11:52:21.819Z,63.96
2018-03-22T11:53:27.518Z,63.99
2018-03-22T11:54:33.233Z,64.10
2018-03-22T11:55:38.942Z,64.35
2018-03-22T11:56:44.883Z,64.16
2018-03-22T11:57:50.615Z,64.17
2018-03-22T11:58:57.083Z,64.36
2018-03-22T12:00:02.796Z,64.24
2018-03-22T12:01:09.281Z,64.28
2018-03-22T12:02:15.012Z,64.31
2018-03-22T12:03:21.494Z,64.16
2018-03-22T12:04:27.199Z,64.08
2018-03-22T12:05:33.428Z,64.32
2018-03-22T12:06:39.142Z,64.22
2018-03-22T12:07:44.875Z,64.14
2018-03-22T12:08:50.585Z,64.27
2018-03-22T12:09:57.059Z,64.29
2018-03-22T12:11:02.798Z,64.17
2018-03-22T12:12:09.441Z,64.37
2018-03-22T12:13:15.961Z,64.61
2018-03-22T12:14:21.668Z,64.70
2018-03-22T12:15:27.393Z,64.55
2018-03-22T12:16:33.852Z,64.60
2018-03-22T12:17:39.570Z,64.57
2018-03-22T12:18:46.062Z,64.96
2018-03-22T12:19:51.769Z,65.15
2018-03-22T12:20:58.253Z,65.35
2018-03-22T12:22:03.959Z,65.57
2018-03-22T12:23:09.686Z,65.71
2018-03-22T12:24:15.406Z,65.98
2018-03-22T12:25:21.128Z,66.21
2018-03-22T12:26:26.835Z,66.42
2018-03-22T12:27:33.322Z,66.38
2018-03-22T12:28:39.036Z,66.55
2018-03-22T12:29:45.545Z,66.56
2018-03-22T12:30:51.254Z,66.59
2018-03-22T12:31:56.971Z,66.41
2018-03-22T12:33:03.865Z,66.37
2018-03-22T12:34:09.570Z,66.34
2018-03-22T12:35:15.364Z,66.16
2018-03-22T12:36:21.080Z,66.17
2018-03-22T12:37:26.785Z,66.25
2018-03-22T12:38:32.490Z,66.38
2018-03-22T12:39:38.192Z,66.44
2018-03-22T12:40:43.925Z,66.50
2018-03-22T12:41:50.412Z,66.40
2018-03-22T12:42:56.109Z,66.40
2018-03-22T12:44:01.842Z,66.25
2018-03-22T12:45:07.541Z,66.29
2018-03-22T12:46:13.271Z,66.31
2018-03-22T12:47:18.982Z,66.21
2018-03-22T12:48:25.467Z,66.20
2018-03-22T12:49:31.165Z,66.09
2018-03-22T12:50:36.873Z,66.06
2018-03-22T12:51:42.606Z,66.03
2018-03-22T12:52:48.322Z,66.13
2018-03-22T12:53:54.034Z,65.93
2018-03-22T12:54:59.734Z,66.18
2018-03-22T12:56:04.786Z,66.11
2018-03-22T12:57:10.524Z,65.95
2018-03-22T12:58:16.237Z,65.77
2018-03-22T12:59:21.943Z,65.53
2018-03-22T13:00:27.693Z,65.48
2018-03-22T13:01:33.393Z,65.43
2018-03-22T13:02:39.125Z,65.42
2018-03-22T13:03:44.837Z,65.36
2018-03-22T13:04:50.882Z,65.25
2018-03-22T13:05:56.584Z,65.30
2018-03-22T13:07:03.082Z,65.37
2018-03-22T13:08:08.852Z,65.41
2018-03-22T13:09:14.558Z,65.21
2018-03-22T13:10:20.313Z,65.12
2018-03-22T13:11:26.037Z,65.11
2018-03-22T13:12:31.742Z,64.89
2018-03-22T13:13:38.231Z,64.82
2018-03-22T13:14:43.945Z,64.68
2018-03-22T13:15:50.413Z,64.50
2018-03-22T13:16:56.912Z,64.42
2018-03-22T13:18:03.566Z,64.38
2018-03-22T13:19:09.298Z,64.24
2018-03-22T13:20:15.007Z,64.22
2018-03-22T13:21:22.085Z,64.08
2018-03-22T13:22:29.547Z,64.23
2018-03-22T13:23:35.070Z,64.35
2018-03-22T13:24:40.860Z,64.41
2018-03-22T13:25:46.582Z,64.41
2018-03-22T13:26:53.065Z,64.59
2018-03-22T13:27:58.770Z,64.46
2018-03-22T13:29:04.475Z,64.63
2018-03-22T13:30:10.195Z,64.75
2018-03-22T13:31:15.920Z,64.79
2018-03-22T13:32:21.632Z,64.78
2018-03-22T13:33:27.326Z,64.57
2018-03-22T13:34:33.037Z,64.68
2018-03-22T13:35:38.762Z,64.73
2018-03-22T13:36:45.244Z,64.75
2018-03-22T13:37:50.961Z,64.91
2018-03-22T13:38:56.851Z,65.06
2018-03-22T13:40:02.560Z,65.04
2018-03-22T13:41:09.063Z,65.16
2018-03-22T13:42:14.778Z,65.29
2018-03-22T13:43:20.494Z,65.36
2018-03-22T13:44:27.189Z,65.41
2018-03-22T13:45:32.988Z,65.33
2018-03-22T13:46:39.518Z,65.37
2018-03-22T13:47:45.235Z,65.31
2018-03-22T13:48:50.949Z,65.46
2018-03-22T13:49:56.457Z,65.42
2018-03-22T13:51:02.954Z,65.30
2018-03-22T13:52:08.699Z,65.24
2018-03-22T13:53:14.404Z,65.09
2018-03-22T13:54:20.899Z,64.96
2018-03-22T13:55:26.600Z,64.92
2018-03-22T13:56:33.955Z,64.90
2018-03-22T13:57:39.692Z,64.67
2018-03-22T13:58:45.390Z,64.43
2018-03-22T13:59:51.105Z,64.48
2018-03-22T14:00:56.853Z,64.57
2018-03-22T14:02:03.329Z,64.57
2018-03-22T14:03:09.081Z,64.60
2018-03-22T14:04:14.790Z,64.51
2018-03-22T14:05:21.250Z,64.56
2018-03-22T14:06:27.740Z,64.51
2018-03-22T14:07:33.448Z,64.50
2018-03-22T14:08:39.937Z,64.48
2018-03-22T14:09:45.643Z,64.48